Time;durP1;ratioP1;P1;durP2;ratioP2;P2;SDS_P1;SDS_P2;PMS_P1;PMS_P2;Temp;Humidity;BMP_temperature;BMP_pressure;BME280_temperature;BME280_humidity;BME280_pressure;Samples;Min_cycle;Max_cycle;Signal;HPM_P1;HPM_P2
2022/02/25 00:01:31;;;;;;;4.10;2.10;;;;;;;2.71;85.74;100524.84;108203;1277;72209;-79
2022/02/25 00:03:59;;;;;;;8.70;1.60;;;;;;;2.71;85.92;100528.13;108236;1277;74497;-80
2022/02/25 00:06:27;;;;;;;4.90;1.60;;;;;;;2.71;86.08;100532.20;108197;1276;59613;-79
2022/02/25 00:08:53;;;;;;;4.60;1.60;;;;;;;2.69;85.96;100535.48;108201;1277;60279;-80
2022/02/25 00:11:29;;;;;;;2.30;1.00;;;;;;;2.65;86.30;100532.46;108196;1277;73948;-80
2022/02/25 00:13:56;;;;;;;6.80;1.50;;;;;;;2.60;86.17;100538.71;108266;1277;71505;-79
2022/02/25 00:16:26;;;;;;;5.90;1.90;;;;;;;2.54;86.42;100544.23;108280;1277;59287;-80
2022/02/25 00:18:52;;;;;;;3.70;1.10;;;;;;;2.49;86.57;100555.33;108263;1276;62576;-79
2022/02/25 00:21:28;;;;;;;8.70;1.40;;;;;;;2.47;86.49;100556.90;108252;1277;60557;-79
2022/02/25 00:23:54;;;;;;;2.70;1.00;;;;;;;2.44;86.50;100564.35;108257;1277;75894;-79
2022/02/25 00:26:24;;;;;;;7.00;1.90;;;;;;;2.43;86.73;100565.34;108241;1277;59986;-79
2022/02/25 00:28:51;;;;;;;3.00;1.10;;;;;;;2.43;86.85;100575.66;108278;1277;72945;-80
2022/02/25 00:31:39;;;;;;;5.80;2.00;;;;;;;2.43;86.65;100578.23;108038;1277;61128;-79
2022/02/25 00:34:06;;;;;;;3.40;1.70;;;;;;;2.44;86.95;100584.77;108281;1277;60326;-79
2022/02/25 00:36:42;;;;;;;3.80;1.80;;;;;;;2.47;86.71;100592.15;108195;1277;75012;-80
2022/02/25 00:39:08;;;;;;;4.20;1.40;;;;;;;2.49;86.81;100598.60;108249;1277;72331;-79
2022/02/25 00:41:37;;;;;;;4.30;1.50;;;;;;;2.50;86.34;100593.64;108242;1276;59163;-79
2022/02/25 00:44:04;;;;;;;2.50;1.10;;;;;;;2.50;86.12;100596.40;108222;1275;61983;-79
2022/02/25 00:46:30;;;;;;;4.90;1.30;;;;;;;2.47;86.10;100603.58;108319;1276;60628;-79
2022/02/25 00:48:57;;;;;;;7.10;1.50;;;;;;;2.45;85.80;100601.53;108298;1276;73569;-79
2022/02/25 00:51:23;;;;;;;3.80;1.40;;;;;;;2.40;85.82;100609.39;108263;1277;59101;-79
2022/02/25 00:53:53;;;;;;;3.90;1.70;;;;;;;2.35;85.58;100617.48;108059;1277;72648;-80
2022/02/25 00:56:33;;;;;;;10.50;2.50;;;;;;;2.32;85.64;100619.16;108229;1277;61196;-80
2022/02/25 00:58:59;;;;;;;6.20;1.20;;;;;;;2.31;85.36;100622.86;108074;1277;60226;-80
2022/02/25 01:01:35;;;;;;;7.30;1.60;;;;;;;2.30;85.54;100625.79;108275;1277;59613;-80
2022/02/25 01:04:02;;;;;;;1.90;0.80;;;;;;;2.28;85.58;100638.67;108288;1277;70838;-79
2022/02/25 01:06:37;;;;;;;10.50;2.10;;;;;;;2.27;85.74;100637.01;108268;1276;74604;-79
2022/02/25 01:09:04;;;;;;;;;;;;;;;2.28;85.70;100642.17;108297;1276;61278;-79
2022/02/25 01:11:34;;;;;;;1.30;0.70;;;;;;;2.28;85.69;100646.67;108113;1277;62132;-79
2022/02/25 01:14:01;;;;;;;6.70;2.10;;;;;;;2.30;85.37;100646.18;108066;1277;76185;-80
2022/02/25 01:16:27;;;;;;;4.10;1.60;;;;;;;2.32;85.41;100655.45;108261;1277;59095;-79
2022/02/25 01:18:57;;;;;;;3.50;1.20;;;;;;;2.34;85.10;100659.45;108040;1277;72950;-79
2022/02/25 01:21:29;;;;;;;8.40;1.70;;;;;;;2.36;85.36;100654.43;108304;1276;59446;-80
2022/02/25 01:23:58;;;;;;;6.50;1.60;;;;;;;2.35;85.26;100655.02;108267;1277;62009;-80
2022/02/25 01:26:24;;;;;;;3.90;0.90;;;;;;;2.33;85.19;100658.70;108113;1276;59109;-79
2022/02/25 01:28:51;;;;;;;5.80;1.00;;;;;;;2.32;84.97;100667.64;108167;1277;72473;-79
2022/02/25 01:31:26;;;;;;;4.10;1.60;;;;;;;2.32;84.87;100658.73;108244;1276;59040;-79
2022/02/25 01:33:53;;;;;;;2.10;1.20;;;;;;;2.34;85.01;100667.86;108224;1277;62364;-79
2022/02/25 01:36:21;;;;;;;2.30;1.10;;;;;;;2.36;84.76;100673.64;108246;1277;59462;-80
2022/02/25 01:38:48;;;;;;;2.70;0.80;;;;;;;2.38;84.45;100678.69;108245;1276;75331;-80
2022/02/25 01:41:24;;;;;;;2.20;0.90;;;;;;;2.38;84.10;100684.27;108312;1277;59141;-80
2022/02/25 01:43:50;;;;;;;14.10;2.60;;;;;;;2.41;83.64;100682.48;108272;1277;73741;-79
2022/02/25 01:46:35;;;;;;;7.00;1.50;;;;;;;2.44;83.86;100681.67;108289;1276;60486;-78
2022/02/25 01:49:02;;;;;;;4.20;1.80;;;;;;;2.47;83.79;100683.92;108320;1277;59601;-79
2022/02/25 01:51:40;;;;;;;4.80;1.80;;;;;;;2.49;83.48;100682.16;108254;1277;75890;-80
2022/02/25 01:54:08;;;;;;;7.60;1.20;;;;;;;2.51;83.45;100685.52;108299;1277;72382;-79
2022/02/25 01:56:39;;;;;;;3.20;1.40;;;;;;;2.53;82.75;100691.33;108242;1277;74122;-80
2022/02/25 01:59:06;;;;;;;6.40;1.30;;;;;;;2.52;82.87;100690.48;108273;1277;61145;-79
2022/02/25 02:01:35;;;;;;;2.00;1.00;;;;;;;2.51;82.42;100694.27;108220;1277;61636;-79
2022/02/25 02:04:03;;;;;;;5.10;1.10;;;;;;;2.50;82.08;100688.40;108297;1277;75900;-79
2022/02/25 02:07:08;;;;;;;4.20;1.70;;;;;;;2.48;82.28;100699.93;108240;1277;72804;-80
2022/02/25 02:09:35;;;;;;;3.20;1.50;;;;;;;2.43;82.36;100691.90;108271;1277;74089;-80
2022/02/25 02:12:02;;;;;;;3.10;1.40;;;;;;;2.39;82.35;100696.55;108204;1277;61889;-79
2022/02/25 02:14:29;;;;;;;2.00;1.00;;;;;;;2.36;82.33;100699.63;108251;1277;59356;-80
2022/02/25 02:16:57;;;;;;;9.70;1.60;;;;;;;2.32;82.14;100703.41;108225;1277;59084;-80
2022/02/25 02:19:25;;;;;;;3.50;1.90;;;;;;;2.27;82.74;100696.83;108071;1277;71318;-80
2022/02/25 02:21:56;;;;;;;6.10;1.90;;;;;;;2.23;82.74;100694.33;108194;1276;73938;-79
2022/02/25 02:24:23;;;;;;;6.90;1.80;;;;;;;2.19;82.71;100696.98;108295;1277;61508;-79
2022/02/25 02:26:52;;;;;;;8.60;1.80;;;;;;;2.14;82.80;100699.09;108036;1277;61615;-80
2022/02/25 02:29:18;;;;;;;3.90;1.80;;;;;;;2.12;82.80;100691.21;108259;1277;74156;-79
2022/02/25 02:31:45;;;;;;;5.10;1.80;;;;;;;2.10;83.05;100700.44;108222;1277;71294;-79
2022/02/25 02:34:14;;;;;;;4.30;2.00;;;;;;;2.07;82.87;100700.34;108185;1277;73169;-79
2022/02/25 02:36:40;;;;;;;6.30;3.10;;;;;;;2.04;83.08;100699.84;108241;1277;61517;-79
2022/02/25 02:39:08;;;;;;;2.90;1.20;;;;;;;2.01;83.15;100700.95;108252;1277;60743;-79
2022/02/25 02:41:38;;;;;;;4.90;2.30;;;;;;;1.97;83.10;100707.70;108278;1276;74804;-80
2022/02/25 02:44:05;;;;;;;4.90;1.60;;;;;;;1.95;83.41;100702.96;108043;1277;72791;-79
2022/02/25 02:46:31;;;;;;;6.10;2.30;;;;;;;1.94;83.54;100714.90;108235;1277;72959;-79
2022/02/25 02:48:59;;;;;;;3.90;1.70;;;;;;;1.91;83.61;100707.34;108252;1277;62722;-81
2022/02/25 02:51:29;;;;;;;11.70;2.30;;;;;;;1.88;83.60;100712.81;108205;1277;61379;-79
2022/02/25 02:53:56;;;;;;;4.70;1.70;;;;;;;1.86;83.57;100725.15;108045;1277;77185;-79
2022/02/25 02:56:35;;;;;;;7.00;3.00;;;;;;;1.83;83.68;100715.92;108258;1277;70093;-79
2022/02/25 02:59:04;;;;;;;2.90;1.60;;;;;;;1.80;83.94;100719.48;108215;1277;74020;-80
2022/02/25 03:01:35;;;;;;;2.80;1.70;;;;;;;1.77;83.97;100725.14;108225;1276;62024;-79
2022/02/25 03:04:01;;;;;;;2.40;1.70;;;;;;;1.75;83.90;100723.33;108006;1277;61373;-79
2022/02/25 03:06:38;;;;;;;6.40;2.40;;;;;;;1.73;84.09;100728.23;108129;1277;75019;-79
2022/02/25 03:09:07;;;;;;;5.60;2.00;;;;;;;1.72;84.17;100721.53;108212;1276;73301;-79
2022/02/25 03:14:37;;;;;;;6.80;2.40;;;;;;;1.72;83.79;100723.77;107979;1278;60007;-79
2022/02/25 03:17:05;;;;;;;4.80;2.10;;;;;;;1.73;83.91;100722.31;107964;1279;60328;-79
2022/02/25 03:19:35;;;;;;;6.70;1.90;;;;;;;1.72;83.68;100725.89;107764;1278;75335;-79
2022/02/25 03:22:02;;;;;;;6.60;2.40;;;;;;;1.71;83.74;100723.52;108073;1277;72104;-79
2022/02/25 03:24:29;;;;;;;4.20;2.30;;;;;;;1.72;83.62;100728.17;107993;1279;72628;-80
2022/02/25 03:29:34;;;;;;;7.60;2.80;;;;;;;1.77;83.18;100738.60;108047;1268;60340;-79
2022/02/25 03:32:01;;;;;;;3.50;2.30;;;;;;;1.81;82.98;100728.12;108092;1277;75025;-79
2022/02/25 03:34:27;;;;;;;5.50;1.60;;;;;;;1.85;82.62;100730.27;107997;1279;74891;-79
2022/02/25 03:36:54;;;;;;;6.80;2.70;;;;;;;1.89;82.70;100732.92;108091;1277;59408;-79
2022/02/25 03:39:20;;;;;;;4.40;2.00;;;;;;;1.92;82.55;100743.65;108142;1277;59544;-79
2022/02/25 03:41:47;;;;;;;8.60;1.90;;;;;;;1.98;82.19;100745.99;107992;1277;59606;-79
2022/02/25 03:44:13;;;;;;;7.00;3.40;;;;;;;2.03;82.14;100743.33;108148;1277;59100;-79
2022/02/25 03:46:40;;;;;;;4.00;2.00;;;;;;;2.08;81.98;100741.92;108123;1277;59082;-79
2022/02/25 03:49:06;;;;;;;5.70;2.60;;;;;;;2.11;82.16;100744.65;108114;1267;59128;-79
2022/02/25 03:51:33;;;;;;;5.80;2.50;;;;;;;2.14;82.02;100746.40;108192;1277;59286;-80
2022/02/25 03:53:59;;;;;;;8.30;2.50;;;;;;;2.16;82.02;100752.52;108057;1277;59157;-79
2022/02/25 03:56:34;;;;;;;6.60;3.20;;;;;;;2.18;81.93;100746.20;108023;1277;59199;-80
2022/02/25 03:59:01;;;;;;;4.80;2.90;;;;;;;2.19;81.86;100751.52;108011;1277;71540;-79
2022/02/25 04:01:38;;;;;;;5.50;3.00;;;;;;;2.20;82.13;100747.82;108199;1277;71957;-79
2022/02/25 04:04:05;;;;;;;14.90;4.50;;;;;;;2.22;81.72;100750.48;107987;1279;61251;-79
2022/02/25 04:06:33;;;;;;;4.40;2.10;;;;;;;2.23;81.94;100750.34;108205;1277;59380;-80
2022/02/25 04:09:00;;;;;;;9.50;3.40;;;;;;;2.25;81.79;100750.58;108225;1277;74996;-79
2022/02/25 04:14:01;;;;;;;4.90;2.10;;;;;;;2.25;81.77;100754.55;108069;1267;70378;-79
2022/02/25 04:16:53;;;;;;;7.60;3.50;;;;;;;2.27;81.22;100759.98;108018;1278;59125;-79
2022/02/25 04:19:20;;;;;;;8.10;3.30;;;;;;;2.30;81.24;100757.53;108154;1277;60580;-79
2022/02/25 04:21:56;;;;;;;3.40;2.10;;;;;;;2.31;81.11;100765.12;108049;1277;74869;-79
2022/02/25 04:24:24;;;;;;;4.60;2.30;;;;;;;2.32;81.15;100766.11;108109;1277;71354;-79
2022/02/25 04:27:06;;;;;;;4.80;2.40;;;;;;;2.33;80.98;100761.98;107945;1278;72713;-79
2022/02/25 04:29:32;;;;;;;4.50;2.50;;;;;;;2.33;80.90;100772.26;108060;1277;62900;-79
2022/02/25 04:31:59;;;;;;;6.30;3.70;;;;;;;2.35;80.33;100764.98;108052;1277;60605;-79
2022/02/25 04:34:29;;;;;;;9.00;3.40;;;;;;;2.37;80.26;100766.20;108118;1277;74901;-79
2022/02/25 04:36:55;;;;;;;9.00;4.30;;;;;;;2.39;79.57;100767.26;108141;1277;71645;-80
2022/02/25 04:39:25;;;;;;;7.00;3.30;;;;;;;2.41;79.45;100766.92;108111;1277;59523;-79
2022/02/25 04:41:51;;;;;;;7.10;3.10;;;;;;;2.43;79.66;100767.14;108044;1274;61567;-79
2022/02/25 04:44:23;;;;;;;10.00;3.70;;;;;;;2.43;79.68;100772.49;108103;1277;60352;-79
2022/02/25 04:47:27;;;;;;;9.60;3.80;;;;;;;2.43;80.19;100759.59;107930;1278;75264;-79
2022/02/25 04:52:31;;;;;;;9.70;4.80;;;;;;;2.41;80.68;100771.64;108263;1267;71413;-79
2022/02/25 04:54:58;;;;;;;9.70;4.10;;;;;;;2.40;80.98;100774.17;108210;1277;59056;-78
2022/02/25 04:57:30;;;;;;;5.90;2.50;;;;;;;2.38;81.01;100773.59;108222;1277;60338;-80
2022/02/25 04:59:57;;;;;;;6.10;3.30;;;;;;;2.38;81.24;100770.29;108220;1277;74955;-81
2022/02/25 05:02:24;;;;;;;5.80;3.00;;;;;;;2.38;81.23;100771.55;108098;1277;72111;-78
2022/02/25 05:04:51;;;;;;;4.80;2.80;;;;;;;2.39;81.31;100775.33;108166;1277;72931;-79
2022/02/25 05:07:17;;;;;;;6.90;3.10;;;;;;;2.38;81.12;100774.49;108208;1277;61414;-78
2022/02/25 05:09:44;;;;;;;9.90;3.30;;;;;;;2.38;81.37;100776.98;108297;1276;59245;-78
2022/02/25 05:12:35;;;;;;;10.10;3.50;;;;;;;2.36;81.45;100781.77;108237;1277;59209;-78
2022/02/25 05:20:25;;;;;;;7.20;3.60;;;;;;;2.30;81.85;100784.42;108231;1268;59918;-78
2022/02/25 05:22:52;;;;;;;10.80;3.30;;;;;;;2.25;81.75;100785.25;108235;1277;61169;-79
2022/02/25 05:25:18;;;;;;;7.00;3.20;;;;;;;2.22;81.88;100785.66;108282;1277;59329;-78
2022/02/25 05:27:45;;;;;;;7.10;3.10;;;;;;;2.20;82.02;100783.40;108172;1277;72361;-78
2022/02/25 05:30:12;;;;;;;7.20;3.00;;;;;;;2.17;82.29;100786.25;108244;1277;73973;-80
2022/02/25 05:32:39;;;;;;;7.80;3.80;;;;;;;2.16;82.15;100788.46;108194;1277;61545;-78
2022/02/25 05:35:08;;;;;;;14.00;4.90;;;;;;;2.16;82.47;100784.60;108267;1277;59410;-80
2022/02/25 05:37:34;;;;;;;6.00;2.60;;;;;;;2.17;82.50;100798.34;108071;1277;74883;-79
2022/02/25 05:40:01;;;;;;;5.40;2.60;;;;;;;2.17;82.83;100797.63;108087;1278;70279;-78
2022/02/25 05:42:28;;;;;;;6.00;2.50;;;;;;;2.19;82.53;100802.52;108000;1277;59935;-79
2022/02/25 05:44:54;;;;;;;7.00;3.00;;;;;;;2.23;82.50;100799.27;108255;1276;62234;-79
2022/02/25 05:47:30;;;;;;;6.00;3.40;;;;;;;2.25;82.26;100794.88;107955;1278;59171;-78
2022/02/25 05:49:57;;;;;;;7.50;3.10;;;;;;;2.28;81.98;100800.61;108106;1277;75915;-78
2022/02/25 05:52:35;;;;;;;7.50;2.60;;;;;;;2.31;82.02;100795.82;108080;1277;72843;-78
2022/02/25 05:55:10;;;;;;;;;;;;;;;2.34;81.81;100794.88;108124;1277;72299;-78
2022/02/25 05:57:37;;;;;;;6.00;1.90;;;;;;;2.35;81.91;100796.52;108088;1277;61349;-78
2022/02/25 06:00:06;;;;;;;9.50;3.90;;;;;;;2.34;81.77;100796.08;107714;1281;61082;-78
2022/02/25 06:02:33;;;;;;;7.80;2.70;;;;;;;2.32;81.71;100794.15;108088;1277;75734;-78
2022/02/25 06:05:00;;;;;;;6.10;2.60;;;;;;;2.28;81.75;100799.34;107943;1280;72438;-78
2022/02/25 06:07:27;;;;;;;13.40;3.10;;;;;;;2.25;82.00;100795.03;107813;1278;72878;-78
2022/02/25 06:09:56;;;;;;;5.20;1.70;;;;;;;2.20;81.93;100799.45;108050;1277;61038;-79
2022/02/25 06:12:23;;;;;;;5.90;2.50;;;;;;;2.16;82.24;100799.24;108012;1277;60590;-78
2022/02/25 06:14:50;;;;;;;7.60;2.70;;;;;;;2.12;82.46;100806.35;107995;1278;74956;-80
2022/02/25 06:17:45;;;;;;;12.60;3.40;;;;;;;2.09;82.56;100806.23;108040;1278;60428;-79
2022/02/25 06:20:12;;;;;;;9.90;3.40;;;;;;;2.07;82.54;100809.03;108082;1277;72900;-79
2022/02/25 06:22:48;;;;;;;7.90;2.80;;;;;;;2.05;82.72;100813.72;108048;1277;61221;-80
2022/02/25 06:25:16;;;;;;;6.30;2.50;;;;;;;2.04;83.05;100815.50;107905;1275;60574;-79
2022/02/25 06:27:43;;;;;;;3.10;1.80;;;;;;;2.03;82.83;100814.16;107944;1280;74654;-79
2022/02/25 06:30:11;;;;;;;5.30;2.60;;;;;;;2.01;82.92;100817.98;107942;1280;71368;-78
2022/02/25 06:32:51;;;;;;;8.10;3.10;;;;;;;2.00;83.08;100824.20;107778;1281;73103;-78
2022/02/25 06:35:17;;;;;;;5.50;2.40;;;;;;;1.99;83.00;100819.75;107889;1280;61903;-78
2022/02/25 06:37:44;;;;;;;6.90;1.80;;;;;;;1.98;83.26;100821.00;107801;1281;59025;-77
2022/02/25 06:40:51;;;;;;;10.60;2.60;;;;;;;1.97;83.44;100822.13;107850;1280;59505;-78
2022/02/25 06:43:18;;;;;;;7.30;2.40;;;;;;;1.97;83.47;100819.73;107897;1279;72363;-78
2022/02/25 06:45:44;;;;;;;8.00;3.50;;;;;;;1.96;83.61;100819.95;107931;1281;72898;-78
2022/02/25 06:48:11;;;;;;;3.80;2.20;;;;;;;1.96;83.58;100831.63;107627;1281;61261;-78
2022/02/25 06:50:37;;;;;;;6.00;2.50;;;;;;;1.98;83.52;100838.95;107848;1281;59151;-79
2022/02/25 06:53:04;;;;;;;9.60;2.60;;;;;;;2.01;83.32;100838.60;107848;1281;59161;-78
2022/02/25 06:55:30;;;;;;;6.10;2.20;;;;;;;2.03;83.37;100833.83;107645;1281;59242;-79
2022/02/25 06:58:04;;;;;;;5.20;2.40;;;;;;;2.06;83.36;100830.23;107672;1281;73109;-79
2022/02/25 07:00:33;;;;;;;7.40;2.20;;;;;;;2.08;83.12;100832.30;107645;1281;60242;-78
2022/02/25 07:02:59;;;;;;;13.60;3.10;;;;;;;2.12;82.90;100836.92;107752;1281;60449;-79
2022/02/25 07:05:26;;;;;;;7.30;2.90;;;;;;;2.16;82.86;100834.88;107517;1281;75713;-79
2022/02/25 07:07:54;;;;;;;7.90;2.60;;;;;;;2.18;82.76;100841.11;107880;1281;72742;-78
2022/02/25 07:10:27;;;;;;;8.90;2.10;;;;;;;2.23;82.44;100842.16;107833;1279;73352;-78
2022/02/25 07:12:54;;;;;;;9.40;4.10;;;;;;;2.27;82.43;100837.52;107620;1280;61446;-80
2022/02/25 07:15:20;;;;;;;6.10;2.00;;;;;;;2.30;82.30;100832.36;107857;1281;59150;-79
2022/02/25 07:17:47;;;;;;;9.00;2.50;;;;;;;2.32;82.47;100840.27;107892;1280;59811;-79
2022/02/25 07:20:15;;;;;;;9.10;2.00;;;;;;;2.34;82.26;100843.73;107862;1280;72426;-77
2022/02/25 07:22:46;;;;;;;12.60;2.70;;;;;;;2.38;82.23;100845.02;107638;1281;71577;-77
2022/02/25 07:25:13;;;;;;;7.50;2.30;;;;;;;2.42;81.89;100843.29;107915;1281;62322;-77
2022/02/25 07:27:42;;;;;;;7.10;2.30;;;;;;;2.46;81.69;100853.47;107617;1281;60663;-77
2022/02/25 07:30:10;;;;;;;8.20;2.50;;;;;;;2.51;81.74;100856.58;107974;1279;76012;-76
2022/02/25 07:32:37;;;;;;;5.40;1.70;;;;;;;2.55;81.25;100860.11;107864;1279;71474;-78
2022/02/25 07:35:05;;;;;;;9.00;1.90;;;;;;;2.59;81.20;100852.48;107895;1280;72917;-77
2022/02/25 07:37:32;;;;;;;6.70;2.90;;;;;;;2.62;80.92;100852.04;107931;1279;61161;-77
2022/02/25 07:39:59;;;;;;;6.60;1.40;;;;;;;2.66;80.66;100864.36;107374;1281;413525;-77
2022/02/25 07:42:27;;;;;;;13.30;3.00;;;;;;;2.68;80.83;100859.64;107707;1281;72634;-77
2022/02/25 07:44:54;;;;;;;6.90;2.10;;;;;;;2.75;80.99;100865.20;107930;1280;59222;-77
2022/02/25 07:47:24;;;;;;;8.20;1.50;;;;;;;2.80;80.48;100874.61;107922;1280;75790;-77
2022/02/25 07:49:51;;;;;;;10.50;2.60;;;;;;;2.85;80.35;100871.05;107902;1280;62518;-77
2022/02/25 07:52:18;;;;;;;8.80;2.00;;;;;;;2.92;79.85;100875.40;107927;1279;61328;-77
2022/02/25 07:54:45;;;;;;;4.20;1.10;;;;;;;2.98;79.50;100868.44;107962;1279;59074;-77
2022/02/25 07:57:12;;;;;;;7.30;1.80;;;;;;;3.04;79.00;100872.84;107708;1281;71495;-76
2022/02/25 07:59:38;;;;;;;9.80;1.90;;;;;;;3.10;78.21;100877.66;107681;1281;73132;-77
2022/02/25 08:02:05;;;;;;;9.60;1.60;;;;;;;3.17;78.47;100879.70;107695;1279;62469;-77
2022/02/25 08:04:32;;;;;;;2.50;0.90;;;;;;;3.23;77.50;100885.37;107680;1281;61443;-77
2022/02/25 08:07:18;;;;;;;4.10;1.30;;;;;;;3.32;77.46;100884.35;107838;1281;78628;-77
2022/02/25 08:09:45;;;;;;;8.60;1.70;;;;;;;3.39;77.39;100877.65;108025;1280;71459;-77
2022/02/25 08:12:11;;;;;;;6.40;2.00;;;;;;;3.54;76.51;100885.13;108011;1279;59084;-78
2022/02/25 08:14:40;;;;;;;7.60;1.80;;;;;;;3.70;76.08;100877.67;107849;1281;59044;-78
2022/02/25 08:17:07;;;;;;;9.30;1.50;;;;;;;3.85;75.51;100887.52;107720;1279;61632;-77
2022/02/25 08:19:33;;;;;;;8.10;1.50;;;;;;;3.96;75.02;100896.90;108013;1279;76005;-77
2022/02/25 08:22:00;;;;;;;11.60;2.10;;;;;;;4.02;74.45;100902.34;108006;1280;72388;-77
2022/02/25 08:24:27;;;;;;;14.70;1.70;;;;;;;4.10;74.09;100898.21;108023;1279;59124;-77
2022/02/25 08:26:53;;;;;;;2.90;1.20;;;;;;;4.18;74.53;100894.95;107716;1281;61487;-77
2022/02/25 08:29:20;;;;;;;6.60;1.30;;;;;;;4.23;73.56;100897.99;108042;1280;58992;-77
2022/02/25 08:31:48;;;;;;;10.30;2.10;;;;;;;4.27;73.09;100889.08;107972;1280;59042;-77
2022/02/25 08:34:15;;;;;;;7.50;1.70;;;;;;;4.28;73.07;100896.30;108030;1279;72147;-77
2022/02/25 08:36:41;;;;;;;8.40;1.50;;;;;;;4.24;72.96;100894.94;107764;1281;58990;-77
2022/02/25 08:39:08;;;;;;;10.10;2.60;;;;;;;4.21;72.43;100899.22;107811;1281;59108;-77
2022/02/25 08:41:36;;;;;;;6.20;1.90;;;;;;;4.19;72.78;100898.86;108000;1279;59738;-78
2022/02/25 08:44:02;;;;;;;4.80;1.00;;;;;;;4.19;73.51;100899.89;108018;1280;76095;-77
2022/02/25 08:46:30;;;;;;;5.90;1.70;;;;;;;4.18;72.75;100897.94;107788;1281;71220;-77
2022/02/25 08:48:56;;;;;;;10.20;2.00;;;;;;;4.13;73.15;100901.60;107751;1282;72935;-77
2022/02/25 08:51:23;;;;;;;6.60;1.90;;;;;;;4.14;73.62;100906.30;107937;1281;60443;-78
2022/02/25 08:53:49;;;;;;;6.90;1.90;;;;;;;4.14;73.49;100907.88;107819;1279;59060;-77
2022/02/25 08:56:16;;;;;;;9.80;2.20;;;;;;;4.17;73.45;100911.15;107763;1281;59732;-77
2022/02/25 08:58:42;;;;;;;8.20;2.00;;;;;;;4.17;73.38;100921.79;107721;1280;71322;-77
2022/02/25 09:01:09;;;;;;;10.70;2.20;;;;;;;4.21;73.26;100920.92;107781;1281;71768;-78
2022/02/25 09:03:35;;;;;;;5.40;1.80;;;;;;;4.24;73.30;100919.46;107753;1281;61388;-77
2022/02/25 09:06:05;;;;;;;5.50;1.50;;;;;;;4.32;73.30;100920.19;107713;1279;61873;-77
2022/02/25 09:08:31;;;;;;;4.90;2.40;;;;;;;4.42;72.66;100911.11;107755;1281;73850;-77
2022/02/25 09:10:58;;;;;;;4.30;1.80;;;;;;;4.57;72.35;100910.71;108013;1279;59087;-77
2022/02/25 09:13:24;;;;;;;9.60;2.40;;;;;;;4.71;72.22;100910.76;107738;1281;59531;-77
2022/02/25 09:15:51;;;;;;;9.80;2.30;;;;;;;4.85;71.68;100907.38;107976;1279;59156;-78
2022/02/25 09:18:17;;;;;;;8.40;2.00;;;;;;;4.89;71.38;100899.73;107966;1280;59067;-78
2022/02/25 09:20:45;;;;;;;5.40;2.00;;;;;;;4.86;71.20;100896.87;107671;1280;74435;-77
2022/02/25 09:23:12;;;;;;;5.30;1.90;;;;;;;4.89;71.27;100896.91;108004;1280;71313;-77
2022/02/25 09:25:38;;;;;;;7.00;2.30;;;;;;;4.95;71.25;100902.27;107563;1281;72999;-77
2022/02/25 09:28:05;;;;;;;6.40;2.00;;;;;;;4.97;71.19;100897.16;107968;1281;59924;-78
2022/02/25 09:30:31;;;;;;;10.90;2.50;;;;;;;4.96;70.93;100902.83;108022;1279;59471;-76
2022/02/25 09:32:58;;;;;;;7.90;2.30;;;;;;;5.00;70.96;100898.46;107790;1281;59779;-77
2022/02/25 09:35:24;;;;;;;8.20;2.20;;;;;;;5.03;71.05;100899.05;107811;1280;58998;-77
2022/02/25 09:37:51;;;;;;;8.00;2.50;;;;;;;5.00;70.77;100892.83;107978;1280;60063;-77
2022/02/25 09:40:20;;;;;;;8.80;2.40;;;;;;;4.84;71.08;100897.23;107987;1279;62234;-77
2022/02/25 09:42:47;;;;;;;10.80;2.80;;;;;;;4.69;71.81;100907.59;108020;1281;59704;-77
2022/02/25 09:45:16;;;;;;;8.70;2.80;;;;;;;4.65;72.80;100896.20;108011;1281;74547;-77
2022/02/25 09:47:43;;;;;;;9.70;2.30;;;;;;;4.56;72.58;100901.20;107990;1279;71483;-76
2022/02/25 09:50:16;;;;;;;10.20;2.90;;;;;;;4.42;73.27;100906.73;107680;1281;74154;-77
2022/02/25 09:52:43;;;;;;;11.70;3.30;;;;;;;4.32;73.77;100911.40;107651;1279;61166;-77
2022/02/25 09:55:22;;;;;;;10.10;3.10;;;;;;;4.25;74.52;100910.94;107801;1281;60549;-77
2022/02/25 09:57:49;;;;;;;7.30;1.90;;;;;;;4.18;75.03;100915.27;107772;1281;77672;-77
2022/02/25 10:00:16;;;;;;;15.20;3.20;;;;;;;4.16;75.68;100925.89;108063;1279;71823;-77
2022/02/25 10:02:46;;;;;;;5.20;2.10;;;;;;;4.19;76.26;100924.42;108000;1279;74107;-78
2022/02/25 10:05:16;;;;;;;12.10;1.70;;;;;;;4.25;76.94;100932.42;108032;1279;62284;-77
2022/02/25 10:07:43;;;;;;;9.80;3.00;;;;;;;4.32;77.03;100932.94;108012;1279;60424;-77
2022/02/25 10:10:11;;;;;;;8.50;2.90;;;;;;;4.37;77.12;100939.91;108010;1280;74942;-79
2022/02/25 10:12:39;;;;;;;10.40;2.70;;;;;;;4.33;77.77;100938.14;108002;1279;72481;-77
2022/02/25 10:15:06;;;;;;;4.80;2.00;;;;;;;4.25;78.47;100939.33;108061;1279;71943;-77
2022/02/25 10:17:33;;;;;;;9.10;2.70;;;;;;;4.16;78.62;100941.12;107856;1281;61408;-77
2022/02/25 10:20:03;;;;;;;6.60;3.10;;;;;;;4.07;79.05;100945.81;108008;1279;59154;-76
2022/02/25 10:22:49;;;;;;;9.70;2.20;;;;;;;4.03;79.64;100944.84;107786;1279;77937;-76
2022/02/25 10:25:20;;;;;;;8.20;2.90;;;;;;;3.98;79.73;100958.68;108010;1279;59345;-76
2022/02/25 10:27:46;;;;;;;10.90;2.90;;;;;;;3.94;80.49;100959.92;107982;1279;74181;-76
2022/02/25 10:30:18;;;;;;;5.70;1.60;;;;;;;3.88;80.33;100968.65;107775;1281;60054;-76
2022/02/25 10:32:50;;;;;;;10.10;2.80;;;;;;;3.81;80.71;100971.13;108003;1279;60663;-76
2022/02/25 10:35:24;;;;;;;10.30;3.10;;;;;;;3.77;81.52;100973.57;107951;1280;76237;-76
2022/02/25 10:38:11;;;;;;;7.10;2.90;;;;;;;3.74;81.41;100974.46;108047;1279;71410;-76
2022/02/25 10:40:49;;;;;;;4.90;1.90;;;;;;;3.72;81.45;100981.29;107587;1281;73261;-76
2022/02/25 10:43:21;;;;;;;6.10;2.40;;;;;;;3.70;80.99;100986.84;107999;1279;62173;-77
2022/02/25 10:46:05;;;;;;;5.30;2.10;;;;;;;3.71;81.54;100982.95;107979;1279;60304;-76
2022/02/25 10:48:33;;;;;;;4.50;3.30;;;;;;;3.73;81.66;100992.38;107665;1281;76647;-77
2022/02/25 10:51:06;;;;;;;5.70;1.80;;;;;;;3.74;81.46;100992.51;107821;1281;70910;-76
2022/02/25 10:53:36;;;;;;;5.60;2.70;;;;;;;3.77;81.44;100999.07;107649;1281;71926;-76
2022/02/25 10:56:07;;;;;;;8.80;3.50;;;;;;;3.83;81.93;100987.04;107585;1281;61913;-77
2022/02/25 10:58:43;;;;;;;6.00;3.00;;;;;;;3.84;81.56;101001.48;108032;1279;59337;-76
2022/02/25 11:01:15;;;;;;;10.80;3.90;;;;;;;3.84;82.04;100995.70;108017;1278;74889;-77
2022/02/25 11:03:43;;;;;;;13.60;4.10;;;;;;;3.90;82.21;100993.27;108028;1281;71352;-76
2022/02/25 11:06:12;;;;;;;6.70;3.40;;;;;;;4.01;81.62;100990.11;107943;1279;73199;-76
2022/02/25 11:08:39;;;;;;;6.10;3.90;;;;;;;4.03;81.23;100996.08;107507;1281;60483;-76
2022/02/25 11:11:07;;;;;;;9.20;3.90;;;;;;;4.08;81.23;100994.59;107986;1279;61422;-76
2022/02/25 11:13:33;;;;;;;8.00;3.90;;;;;;;4.23;80.78;100990.77;107469;1281;60836;-77
2022/02/25 11:16:01;;;;;;;12.40;4.00;;;;;;;4.45;79.69;100987.70;108004;1281;59137;-76
2022/02/25 11:18:30;;;;;;;4.70;2.50;;;;;;;4.68;78.86;100977.40;107928;1279;72921;-76
2022/02/25 11:20:58;;;;;;;7.40;3.00;;;;;;;4.90;78.03;100984.48;108003;1279;61391;-77
2022/02/25 11:23:25;;;;;;;9.90;3.20;;;;;;;5.24;77.73;100985.90;108000;1279;60628;-76
2022/02/25 11:25:52;;;;;;;6.30;2.90;;;;;;;5.52;75.42;100991.09;107965;1281;75989;-77
2022/02/25 11:28:22;;;;;;;10.40;2.90;;;;;;;5.66;74.01;100989.65;108004;1280;72426;-77
2022/02/25 11:31:06;;;;;;;6.30;3.40;;;;;;;5.80;73.85;100992.42;107702;1281;72941;-77
2022/02/25 11:33:34;;;;;;;6.40;2.90;;;;;;;5.94;73.04;100993.46;107987;1279;62490;-77
2022/02/25 11:36:04;;;;;;;8.30;3.10;;;;;;;5.95;72.73;100999.72;108026;1281;60404;-77
2022/02/25 11:38:44;;;;;;;7.70;3.80;;;;;;;5.90;73.26;100997.14;108013;1281;75958;-77
2022/02/25 11:41:13;;;;;;;7.10;3.20;;;;;;;5.89;72.54;100996.92;107982;1280;71348;-77
2022/02/25 11:43:44;;;;;;;7.20;2.30;;;;;;;5.89;72.57;101000.05;107915;1281;60609;-78
2022/02/25 11:46:24;;;;;;;5.00;2.50;;;;;;;5.70;71.51;101017.73;107730;1268;62465;-77
2022/02/25 11:48:55;;;;;;;8.00;3.00;;;;;;;5.51;72.52;101019.55;107989;1279;62106;-76
2022/02/25 11:51:26;;;;;;;8.80;2.90;;;;;;;5.39;72.78;101013.76;107842;1281;76014;-77